Time;durP1;ratioP1;P1;durP2;ratioP2;P2;SDS_P1;SDS_P2;PMS_P1;PMS_P2;Temp;Humidity;BMP_temperature;BMP_pressure;BME280_temperature;BME280_humidity;BME280_pressure;Samples;Min_cycle;Max_cycle;Signal;HPM_P1;HPM_P2
2022/08/31 00:04:09;;;;;;;6.38;5.80;;;18.30;99.90;;;;;;5040795;28;20262;-78
2022/08/31 00:06:35;;;;;;;6.63;5.93;;;18.30;99.90;;;;;;5039222;28;20177;-78
2022/08/31 00:09:03;;;;;;;6.65;5.90;;;18.30;99.90;;;;;;5039463;28;20207;-78
2022/08/31 00:11:29;;;;;;;6.93;6.28;;;18.30;99.90;;;;;;5040868;28;20195;-78
2022/08/31 00:14:02;;;;;;;6.13;5.20;;;18.20;99.90;;;;;;5038499;28;20197;-77
2022/08/31 00:16:31;;;;;;;7.20;6.10;;;18.30;99.90;;;;;;5029932;28;20180;-77
2022/08/31 00:18:56;;;;;;;6.50;5.50;;;18.20;99.90;;;;;;5028137;28;20196;-77
2022/08/31 00:21:25;;;;;;;6.25;5.65;;;18.20;99.90;;;;;;5044630;28;20642;-77
2022/08/31 00:23:52;;;;;;;6.32;5.78;;;18.20;99.90;;;;;;5031600;28;20174;-77
2022/08/31 00:26:19;;;;;;;6.88;5.65;;;18.10;99.90;;;;;;5029591;28;20183;-78
2022/08/31 00:28:45;;;;;;;7.03;6.43;;;18.10;99.90;;;;;;5029674;28;20196;-77
2022/08/31 00:31:11;;;;;;;7.75;5.88;;;18.10;99.90;;;;;;5033636;28;20206;-78
2022/08/31 00:33:37;;;;;;;6.18;5.68;;;18.10;99.90;;;;;;5030519;28;20614;-77
2022/08/31 00:36:05;;;;;;;6.45;5.85;;;18.10;99.90;;;;;;5021315;28;20173;-76
2022/08/31 00:38:31;;;;;;;6.22;5.63;;;18.10;99.90;;;;;;5026624;28;20228;-76
2022/08/31 00:40:57;;;;;;;6.75;5.85;;;18.00;99.90;;;;;;5033513;28;20665;-76
2022/08/31 00:43:59;;;;;;;7.65;5.50;;;18.10;99.90;;;;;;5035605;28;20188;-76
2022/08/31 00:46:31;;;;;;;6.80;6.20;;;18.10;99.90;;;;;;5030587;28;20255;-77
2022/08/31 00:49:15;;;;;;;6.40;5.68;;;18.00;99.90;;;;;;5028055;28;20204;-76
2022/08/31 00:52:11;;;;;;;6.50;5.88;;;18.00;99.90;;;;;;5029723;28;20176;-80
2022/08/31 00:54:50;;;;;;;6.32;5.57;;;18.00;99.90;;;;;;5034470;28;20219;-77
2022/08/31 00:57:15;;;;;;;6.72;5.30;;;18.00;99.90;;;;;;5035497;28;20170;-76
2022/08/31 00:59:45;;;;;;;6.75;6.15;;;18.00;99.90;;;;;;5030463;28;20200;-79
2022/08/31 01:02:11;;;;;;;9.40;6.40;;;17.90;99.90;;;;;;5037437;28;20171;-76
2022/08/31 01:04:37;;;;;;;5.78;5.18;;;17.90;99.90;;;;;;5026748;28;20177;-80
2022/08/31 01:07:05;;;;;;;8.65;6.25;;;17.90;99.90;;;;;;5032387;28;20215;-77
2022/08/31 01:09:34;;;;;;;6.25;5.47;;;17.90;99.90;;;;;;5027973;28;20211;-77
2022/08/31 01:12:00;;;;;;;6.18;5.57;;;17.90;99.90;;;;;;5032972;28;20231;-76
2022/08/31 01:14:25;;;;;;;6.60;5.47;;;17.90;99.90;;;;;;5029915;28;20311;-76
2022/08/31 01:16:54;;;;;;;6.72;6.07;;;17.80;99.90;;;;;;5031844;28;20255;-75
2022/08/31 01:19:40;;;;;;;6.65;5.90;;;17.80;99.90;;;;;;5032423;28;20282;-76
2022/08/31 01:22:15;;;;;;;5.03;4.63;;;17.80;99.90;;;;;;5032690;28;20181;-75
2022/08/31 01:24:44;;;;;;;6.80;6.05;;;17.70;99.90;;;;;;5031037;28;20618;-75
2022/08/31 01:27:12;;;;;;;7.05;4.95;;;17.80;99.90;;;;;;5035709;28;20183;-75
2022/08/31 01:29:38;;;;;;;6.50;5.90;;;17.80;99.90;;;;;;5032456;28;20238;-76
2022/08/31 01:32:04;;;;;;;5.43;4.93;;;17.80;99.90;;;;;;5033347;28;22030;-76
2022/08/31 01:34:31;;;;;;;6.25;5.75;;;17.80;99.90;;;;;;5028554;28;20216;-77
2022/08/31 01:36:57;;;;;;;7.70;6.03;;;17.80;99.90;;;;;;5033277;28;20176;-77
2022/08/31 01:39:23;;;;;;;6.18;5.60;;;17.70;99.90;;;;;;5029521;28;20246;-77
2022/08/31 01:41:49;;;;;;;6.25;5.75;;;17.80;99.90;;;;;;5030222;28;20576;-77
2022/08/31 01:44:19;;;;;;;9.43;5.97;;;17.70;99.90;;;;;;5027818;28;20184;-77
2022/08/31 01:46:45;;;;;;;7.43;5.40;;;17.70;99.90;;;;;;5030375;28;20185;-77
2022/08/31 01:49:14;;;;;;;6.07;5.50;;;17.70;99.90;;;;;;5031299;28;20196;-77
2022/08/31 01:51:40;;;;;;;6.43;5.75;;;17.70;99.90;;;;;;5030885;28;20230;-77
2022/08/31 01:54:06;;;;;;;6.03;5.43;;;17.70;99.90;;;;;;5036352;28;20195;-76
2022/08/31 01:56:36;;;;;;;5.65;5.15;;;17.70;99.90;;;;;;5030288;28;20191;-77
2022/08/31 01:59:04;;;;;;;10.70;5.13;;;17.70;99.90;;;;;;5033515;28;20223;-76
2022/08/31 02:01:33;;;;;;;5.78;5.22;;;17.70;99.90;;;;;;5038858;28;20663;-76
2022/08/31 02:03:59;;;;;;;6.57;5.53;;;17.80;99.90;;;;;;5034015;28;20200;-77
2022/08/31 02:06:25;;;;;;;7.90;5.20;;;17.70;99.90;;;;;;5031195;28;20183;-76
2022/08/31 02:08:51;;;;;;;7.65;6.03;;;17.70;99.90;;;;;;5036647;28;20193;-76
2022/08/31 02:11:17;;;;;;;7.07;6.05;;;17.60;99.90;;;;;;5037545;28;20179;-76
2022/08/31 02:13:43;;;;;;;6.57;5.88;;;17.60;99.90;;;;;;5033604;28;20192;-76
2022/08/31 02:16:08;;;;;;;6.15;5.55;;;17.50;99.90;;;;;;5035327;28;20240;-77
2022/08/31 02:18:35;;;;;;;6.00;5.40;;;17.50;99.90;;;;;;5034935;28;20204;-76
2022/08/31 02:21:02;;;;;;;5.55;5.00;;;17.40;99.90;;;;;;5039046;28;20511;-76
2022/08/31 02:23:28;;;;;;;7.53;5.95;;;17.50;99.90;;;;;;5034449;28;20177;-80
2022/08/31 02:25:54;;;;;;;6.65;5.57;;;17.40;99.90;;;;;;5031787;28;20187;-76
2022/08/31 02:28:21;;;;;;;6.07;5.57;;;17.40;99.90;;;;;;5033646;28;20191;-76
2022/08/31 02:30:47;;;;;;;8.27;5.68;;;17.40;99.90;;;;;;5030799;28;20268;-76
2022/08/31 02:33:12;;;;;;;7.82;5.80;;;17.30;99.90;;;;;;5034637;28;20184;-76
2022/08/31 02:35:38;;;;;;;6.07;5.43;;;17.30;99.90;;;;;;5036878;28;20572;-76
2022/08/31 02:38:05;;;;;;;5.68;5.13;;;17.30;99.90;;;;;;5034185;28;20204;-76
2022/08/31 02:40:31;;;;;;;6.55;5.65;;;17.30;99.90;;;;;;5029979;28;20188;-77
2022/08/31 02:42:57;;;;;;;6.20;5.60;;;17.30;99.90;;;;;;5033161;28;20173;-78
2022/08/31 02:45:23;;;;;;;6.82;5.35;;;17.30;99.90;;;;;;5038848;28;20180;-78
2022/08/31 02:47:48;;;;;;;6.05;4.82;;;17.30;99.90;;;;;;5036567;28;20223;-77
2022/08/31 02:50:15;;;;;;;6.47;5.88;;;17.30;99.90;;;;;;5037609;28;20716;-78
2022/08/31 02:52:41;;;;;;;8.05;5.65;;;17.30;99.90;;;;;;5047091;28;20207;-78
2022/08/31 02:55:06;;;;;;;6.70;4.82;;;17.20;99.90;;;;;;5042281;28;20232;-77
2022/08/31 02:57:32;;;;;;;6.45;5.38;;;17.20;99.90;;;;;;5036021;28;20180;-77
2022/08/31 02:59:57;;;;;;;5.45;5.05;;;17.20;99.90;;;;;;5035114;28;20172;-78
2022/08/31 03:02:24;;;;;;;7.07;4.63;;;17.10;99.90;;;;;;5042305;28;20670;-78
2022/08/31 03:04:50;;;;;;;5.70;5.15;;;17.20;99.90;;;;;;5040388;28;20186;-78
2022/08/31 03:07:16;;;;;;;8.27;5.82;;;17.10;99.90;;;;;;5031603;28;20608;-78
2022/08/31 03:09:42;;;;;;;5.85;5.25;;;17.10;99.90;;;;;;5031953;28;20282;-78
2022/08/31 03:12:07;;;;;;;6.60;5.70;;;17.10;99.90;;;;;;5033075;28;20567;-80
2022/08/31 03:14:33;;;;;;;5.32;4.90;;;17.10;99.90;;;;;;5040562;28;20215;-80
2022/08/31 03:16:59;;;;;;;7.03;5.07;;;17.20;99.90;;;;;;5046891;28;20176;-80
2022/08/31 03:19:25;;;;;;;7.68;5.50;;;17.20;99.90;;;;;;5040266;28;20200;-79
2022/08/31 03:21:50;;;;;;;5.35;4.85;;;17.20;99.90;;;;;;5039757;28;20307;-81
2022/08/31 03:24:20;;;;;;;6.45;5.38;;;17.20;99.90;;;;;;5032304;28;20172;-79
2022/08/31 03:26:45;;;;;;;5.18;4.78;;;17.20;99.90;;;;;;5042460;28;20263;-80
2022/08/31 03:29:12;;;;;;;7.43;5.45;;;17.10;99.90;;;;;;5045220;28;20232;-79
2022/08/31 03:31:38;;;;;;;5.93;5.38;;;17.10;99.90;;;;;;5036963;28;20181;-79
2022/08/31 03:34:04;;;;;;;5.60;5.10;;;17.10;99.90;;;;;;5039309;28;20717;-78
2022/08/31 03:36:30;;;;;;;11.45;5.38;;;17.10;99.90;;;;;;5030628;28;20262;-79
2022/08/31 03:38:56;;;;;;;5.18;4.68;;;17.10;99.90;;;;;;5039292;28;20275;-78
2022/08/31 03:41:24;;;;;;;4.93;4.57;;;17.20;99.90;;;;;;5035246;28;20177;-79
2022/08/31 03:43:50;;;;;;;5.15;4.75;;;17.10;99.90;;;;;;5035045;28;20264;-79
2022/08/31 03:46:16;;;;;;;6.57;5.50;;;17.20;99.90;;;;;;5029784;28;20716;-79
2022/08/31 03:48:42;;;;;;;5.07;4.68;;;17.10;99.90;;;;;;5052374;28;20196;-80
2022/08/31 03:51:08;;;;;;;7.13;5.45;;;17.00;99.90;;;;;;5041969;28;20252;-80
2022/08/31 03:53:34;;;;;;;4.95;4.43;;;17.00;99.90;;;;;;5042067;28;20780;-78
2022/08/31 03:56:02;;;;;;;6.78;5.75;;;17.00;99.90;;;;;;5032037;28;20204;-79
2022/08/31 03:58:29;;;;;;;5.00;4.65;;;17.00;99.90;;;;;;5036077;28;20211;-80
2022/08/31 04:00:55;;;;;;;6.65;4.78;;;17.00;99.90;;;;;;5034752;28;20288;-78
2022/08/31 04:03:22;;;;;;;6.60;4.60;;;17.00;99.90;;;;;;5035253;28;20181;-79
2022/08/31 04:05:48;;;;;;;6.22;5.40;;;17.00;99.90;;;;;;5040488;28;20176;-79
2022/08/31 04:08:15;;;;;;;5.35;4.95;;;16.90;99.90;;;;;;5039731;28;20212;-79
2022/08/31 04:10:42;;;;;;;8.13;5.10;;;16.90;99.90;;;;;;5035350;28;20177;-78
2022/08/31 04:13:08;;;;;;;5.85;5.20;;;16.90;99.90;;;;;;5034725;28;20200;-79
2022/08/31 04:15:36;;;;;;;5.25;4.75;;;16.90;99.90;;;;;;5030314;28;20201;-79
2022/08/31 04:18:03;;;;;;;5.40;4.90;;;16.90;99.90;;;;;;5035669;28;20196;-79
2022/08/31 04:20:32;;;;;;;5.55;5.03;;;16.90;99.90;;;;;;5024624;28;20211;-79
2022/08/31 04:22:57;;;;;;;5.47;4.97;;;16.80;99.90;;;;;;5036696;28;20173;-80
2022/08/31 04:25:23;;;;;;;5.93;5.28;;;16.80;99.90;;;;;;5043892;28;20723;-80
2022/08/31 04:27:49;;;;;;;6.43;5.72;;;16.80;99.90;;;;;;5032941;28;20298;-79
2022/08/31 04:30:16;;;;;;;5.45;4.95;;;16.80;99.90;;;;;;5034668;28;20195;-79
2022/08/31 04:32:41;;;;;;;6.82;5.22;;;16.80;99.90;;;;;;5032810;28;20208;-78
2022/08/31 04:35:07;;;;;;;6.40;5.07;;;16.80;99.90;;;;;;5026663;28;20629;-77
2022/08/31 04:37:33;;;;;;;5.25;4.63;;;16.80;99.90;;;;;;5032302;28;20215;-78
2022/08/31 04:40:00;;;;;;;5.18;4.78;;;16.80;99.90;;;;;;5033798;28;20180;-79
2022/08/31 04:42:29;;;;;;;6.40;5.63;;;16.70;99.90;;;;;;5031983;28;20177;-78
2022/08/31 04:44:54;;;;;;;6.18;5.25;;;16.80;99.90;;;;;;5027916;28;20188;-78
2022/08/31 04:47:20;;;;;;;5.78;5.30;;;16.80;99.90;;;;;;5028391;28;20180;-78
2022/08/31 04:49:47;;;;;;;6.13;5.63;;;16.80;99.90;;;;;;5034010;28;20277;-77
2022/08/31 04:52:12;;;;;;;5.43;4.93;;;16.80;99.90;;;;;;5035546;28;20204;-77
2022/08/31 04:54:38;;;;;;;5.50;4.90;;;16.90;99.90;;;;;;5032202;28;20200;-77
2022/08/31 04:57:04;;;;;;;5.45;4.88;;;16.90;99.90;;;;;;5032547;28;20181;-81
2022/08/31 04:59:30;;;;;;;6.53;5.18;;;16.90;99.90;;;;;;5030725;28;20226;-81
2022/08/31 05:01:57;;;;;;;6.50;4.90;;;16.90;99.90;;;;;;5044193;28;20268;-82
2022/08/31 05:04:23;;;;;;;6.38;5.03;;;16.90;99.90;;;;;;5036636;28;20571;-80
2022/08/31 05:06:50;;;;;;;6.15;5.22;;;16.90;99.90;;;;;;5037373;28;20188;-82
2022/08/31 05:09:19;;;;;;;5.85;4.85;;;17.00;99.90;;;;;;5031215;28;20577;-83
2022/08/31 05:11:45;;;;;;;6.07;5.22;;;17.00;99.90;;;;;;5034884;28;20240;-80
2022/08/31 05:14:11;;;;;;;5.40;4.82;;;17.00;99.90;;;;;;5043041;28;20214;-80
2022/08/31 05:16:38;;;;;;;5.22;4.50;;;17.10;99.90;;;;;;5036190;28;20251;-80
2022/08/31 05:19:04;;;;;;;6.10;5.32;;;17.10;99.90;;;;;;5044047;28;20263;-80
2022/08/31 05:21:35;;;;;;;5.93;5.35;;;17.20;99.90;;;;;;5038956;28;20208;-79
2022/08/31 05:24:02;;;;;;;5.28;4.78;;;17.20;99.90;;;;;;5037511;28;20177;-79
2022/08/31 05:26:32;;;;;;;5.63;4.50;;;17.30;99.90;;;;;;5038178;28;20558;-77
2022/08/31 05:29:00;;;;;;;5.13;4.70;;;17.40;99.90;;;;;;5029480;28;20195;-77
2022/08/31 05:31:28;;;;;;;4.78;4.38;;;17.40;99.90;;;;;;5032251;28;20176;-78
2022/08/31 05:33:55;;;;;;;5.18;4.78;;;17.40;99.90;;;;;;5037131;28;20202;-77
2022/08/31 05:36:21;;;;;;;5.35;4.28;;;17.40;99.90;;;;;;5037148;28;20182;-77
2022/08/31 05:38:46;;;;;;;5.13;4.63;;;17.50;99.90;;;;;;5036782;28;20192;-77
2022/08/31 05:41:12;;;;;;;7.38;5.43;;;17.50;99.90;;;;;;5032370;28;20180;-78
2022/08/31 05:43:39;;;;;;;6.28;4.65;;;17.50;99.90;;;;;;5041203;28;20451;-78
2022/08/31 05:46:11;;;;;;;8.25;5.20;;;17.60;99.90;;;;;;5041059;28;20185;-77
2022/08/31 05:48:37;;;;;;;6.45;4.70;;;17.60;99.90;;;;;;5038850;28;20287;-76
2022/08/31 05:51:04;;;;;;;5.20;4.80;;;17.60;99.90;;;;;;5035645;28;20445;-77
2022/08/31 05:53:30;;;;;;;5.43;4.93;;;17.70;99.90;;;;;;5042771;28;20598;-76
2022/08/31 05:56:05;;;;;;;5.68;5.18;;;17.80;99.90;;;;;;5038270;28;20291;-73
2022/08/31 05:58:32;;;;;;;5.25;4.75;;;17.80;99.90;;;;;;5038506;28;20588;-73
2022/08/31 06:00:59;;;;;;;4.78;4.38;;;17.80;99.90;;;;;;5035030;28;20228;-73
2022/08/31 06:03:26;;;;;;;4.93;4.55;;;17.90;99.90;;;;;;5026406;28;20188;-78
2022/08/31 06:05:51;;;;;;;5.10;4.70;;;17.90;99.90;;;;;;5031256;28;20532;-72
2022/08/31 06:08:18;;;;;;;4.53;4.22;;;18.00;99.90;;;;;;5031836;28;20210;-76
2022/08/31 06:10:45;;;;;;;5.20;4.80;;;18.10;99.90;;;;;;5037270;28;20185;-75
2022/08/31 06:13:15;;;;;;;5.10;4.70;;;18.10;99.90;;;;;;5035217;28;20643;-76
2022/08/31 06:15:42;;;;;;;4.10;3.80;;;18.20;99.90;;;;;;5032672;28;20213;-75
2022/08/31 06:18:09;;;;;;;5.13;4.72;;;18.30;99.90;;;;;;5037808;28;20223;-75
2022/08/31 06:20:38;;;;;;;4.40;4.10;;;18.30;99.90;;;;;;5032975;28;20181;-73
2022/08/31 06:23:07;;;;;;;4.32;4.00;;;18.40;99.90;;;;;;5029159;28;20263;-73
2022/08/31 06:25:35;;;;;;;4.28;3.97;;;18.30;99.90;;;;;;5033361;28;20186;-73
2022/08/31 06:28:06;;;;;;;4.38;4.07;;;18.40;99.90;;;;;;5036992;28;20295;-75
2022/08/31 06:30:35;;;;;;;5.07;4.65;;;18.60;99.90;;;;;;5027453;28;20632;-75
2022/08/31 06:33:01;;;;;;;5.00;4.60;;;18.80;99.90;;;;;;5034903;28;20180;-75
2022/08/31 06:35:27;;;;;;;4.88;4.40;;;18.80;99.90;;;;;;5042184;28;20207;-75
2022/08/31 06:37:54;;;;;;;4.78;4.22;;;18.90;99.90;;;;;;5031333;28;20250;-75
2022/08/31 06:40:19;;;;;;;4.28;3.92;;;18.90;99.90;;;;;;5032827;28;20180;-76
2022/08/31 06:42:45;;;;;;;5.00;4.60;;;19.00;99.90;;;;;;5034896;28;20509;-74
2022/08/31 06:45:11;;;;;;;4.65;4.35;;;19.20;99.90;;;;;;5031148;28;20187;-76
2022/08/31 06:47:37;;;;;;;5.57;4.40;;;19.20;99.90;;;;;;5032997;28;20180;-74
2022/08/31 06:50:03;;;;;;;4.30;4.00;;;19.30;99.90;;;;;;5031156;28;20187;-76
2022/08/31 06:52:30;;;;;;;5.22;4.68;;;19.30;99.90;;;;;;5033593;28;20267;-75
2022/08/31 06:54:55;;;;;;;6.03;4.45;;;19.40;99.90;;;;;;5035289;28;20292;-76
2022/08/31 06:57:21;;;;;;;5.68;4.10;;;19.50;99.90;;;;;;5036997;28;20622;-77
2022/08/31 06:59:50;;;;;;;4.55;4.15;;;19.50;99.90;;;;;;5036202;28;20200;-78
2022/08/31 07:02:15;;;;;;;4.82;4.43;;;19.60;99.90;;;;;;5022077;28;20191;-74
2022/08/31 07:04:41;;;;;;;4.70;3.78;;;19.50;99.90;;;;;;5031580;28;20184;-75
2022/08/31 07:07:10;;;;;;;4.47;4.07;;;19.70;99.90;;;;;;5029620;28;20279;-77
2022/08/31 07:09:36;;;;;;;5.78;3.97;;;19.70;99.90;;;;;;5033626;28;20279;-76
2022/08/31 07:12:03;;;;;;;4.55;4.25;;;19.80;99.90;;;;;;5034340;28;20176;-76
2022/08/31 07:14:29;;;;;;;5.15;4.65;;;19.90;99.90;;;;;;5028606;28;20220;-76
2022/08/31 07:16:55;;;;;;;4.32;3.92;;;19.90;99.90;;;;;;5023147;28;20241;-82
2022/08/31 07:19:22;;;;;;;4.95;3.65;;;19.90;99.90;;;;;;5034975;28;20200;-77
2022/08/31 07:21:51;;;;;;;4.47;4.07;;;19.90;99.90;;;;;;5034010;28;20180;-73
2022/08/31 07:24:21;;;;;;;4.65;4.05;;;20.00;99.90;;;;;;5030227;28;20183;-74
2022/08/31 07:26:53;;;;;;;4.40;4.00;;;20.00;99.90;;;;;;5032725;28;20188;-75
2022/08/31 07:29:21;;;;;;;4.10;3.80;;;20.00;99.90;;;;;;5026664;28;20679;-76
2022/08/31 07:31:49;;;;;;;5.65;4.25;;;20.00;99.90;;;;;;5034052;28;20643;-75
2022/08/31 07:34:27;;;;;;;4.55;4.18;;;19.70;99.90;;;;;;5037112;28;20235;-75
2022/08/31 07:42:29;;;;;;;5.60;4.53;;;19.90;99.90;;;;;;5030753;28;20261;-75
2022/08/31 07:44:57;;;;;;;4.90;4.32;;;19.80;99.90;;;;;;5029462;28;20177;-75
2022/08/31 07:47:24;;;;;;;3.95;3.75;;;20.00;99.90;;;;;;5034383;28;20196;-74
2022/08/31 07:49:52;;;;;;;4.40;3.83;;;20.20;99.90;;;;;;5032449;28;20610;-74
2022/08/31 07:52:23;;;;;;;5.05;4.20;;;20.30;99.90;;;;;;5028525;28;20607;-74
2022/08/31 07:54:51;;;;;;;5.32;4.32;;;20.40;99.90;;;;;;5028944;28;20236;-75
2022/08/31 07:57:18;;;;;;;4.88;3.60;;;20.50;99.90;;;;;;5032732;28;20184;-74
2022/08/31 07:59:45;;;;;;;4.10;3.72;;;20.50;99.90;;;;;;5032578;28;20194;-75
2022/08/31 08:02:12;;;;;;;6.25;4.28;;;20.60;99.90;;;;;;5034149;28;20640;-75
2022/08/31 08:04:39;;;;;;;4.07;3.67;;;20.70;99.90;;;;;;5029709;28;20655;-74
2022/08/31 08:07:06;;;;;;;5.55;3.92;;;20.80;99.90;;;;;;5037763;28;20175;-75
2022/08/31 08:09:32;;;;;;;3.95;3.65;;;20.90;99.90;;;;;;5031871;28;20231;-76
2022/08/31 08:12:03;;;;;;;4.53;3.97;;;21.00;99.90;;;;;;5036541;28;20748;-76
2022/08/31 08:14:29;;;;;;;3.72;3.50;;;21.10;99.90;;;;;;5027317;28;20205;-75
2022/08/31 08:16:55;;;;;;;3.80;3.60;;;21.20;99.90;;;;;;5034403;28;20610;-75
2022/08/31 08:19:22;;;;;;;3.97;3.67;;;21.30;99.90;;;;;;5033246;28;20300;-75
2022/08/31 08:21:47;;;;;;;4.18;3.88;;;21.40;99.90;;;;;;5029902;28;20283;-75
2022/08/31 08:24:14;;;;;;;6.00;4.10;;;21.40;99.90;;;;;;5031938;28;20211;-76
2022/08/31 08:26:46;;;;;;;3.97;3.63;;;21.50;99.90;;;;;;5029949;28;20663;-76
2022/08/31 08:29:12;;;;;;;4.63;3.75;;;21.60;99.90;;;;;;5030584;28;20199;-77
2022/08/31 08:31:38;;;;;;;3.97;3.53;;;21.90;99.90;;;;;;5030609;28;20177;-75
2022/08/31 08:34:04;;;;;;;4.22;3.90;;;22.00;99.90;;;;;;5030558;28;20180;-76
2022/08/31 08:36:34;;;;;;;4.57;3.42;;;22.00;99.90;;;;;;5027724;28;20192;-76
2022/08/31 08:39:00;;;;;;;3.72;3.53;;;22.20;99.90;;;;;;5035731;28;20654;-76
2022/08/31 08:41:30;;;;;;;4.63;4.22;;;22.50;99.90;;;;;;5034869;28;20234;-76
2022/08/31 08:43:59;;;;;;;4.70;3.50;;;22.70;99.90;;;;;;5030485;28;20246;-76
2022/08/31 08:46:49;;;;;;;4.53;4.22;;;22.90;99.90;;;;;;5025474;28;20194;-74
2022/08/31 08:49:18;;;;;;;4.53;4.15;;;23.00;99.90;;;;;;5027164;28;20226;-75
2022/08/31 08:51:45;;;;;;;3.88;3.58;;;23.10;99.90;;;;;;5038308;28;20455;-83
2022/08/31 08:54:17;;;;;;;4.25;3.95;;;23.20;99.90;;;;;;5029388;28;20659;-75
2022/08/31 08:56:46;;;;;;;5.95;3.97;;;23.30;99.90;;;;;;5023442;28;20185;-75
2022/08/31 08:59:14;;;;;;;4.80;4.40;;;23.10;99.90;;;;;;5032290;28;20184;-73
2022/08/31 09:01:45;;;;;;;4.45;4.05;;;23.20;99.90;;;;;;5034668;28;20181;-73
2022/08/31 09:04:11;;;;;;;4.10;3.70;;;23.50;99.90;;;;;;5032285;28;20244;-74
2022/08/31 09:06:56;;;;;;;4.95;4.45;;;23.70;99.90;;;;;;5036087;28;20186;-73
2022/08/31 09:09:28;;;;;;;4.10;3.70;;;23.80;99.90;;;;;;5032585;28;20228;-74
2022/08/31 09:12:03;;;;;;;3.38;3.08;;;23.90;99.90;;;;;;5034995;28;20187;-74
2022/08/31 09:14:35;;;;;;;3.97;3.67;;;23.90;99.90;;;;;;5027273;28;20219;-74
2022/08/31 09:17:37;;;;;;;3.95;3.58;;;24.00;99.90;;;;;;5032871;28;20491;-74
2022/08/31 09:20:05;;;;;;;4.30;4.00;;;23.90;99.90;;;;;;5018133;28;20218;-74
2022/08/31 09:22:45;;;;;;;3.42;3.22;;;24.00;99.90;;;;;;5022694;28;20261;-73
2022/08/31 09:25:13;;;;;;;4.60;4.20;;;24.10;99.90;;;;;;5024648;28;20189;-74
2022/08/31 09:28:02;;;;;;;4.78;4.20;;;24.20;99.90;;;;;;5027648;28;20188;-75
2022/08/31 09:30:50;;;;;;;4.57;4.18;;;23.70;99.90;;;;;;5035637;28;20322;-73
2022/08/31 09:33:20;;;;;;;4.22;3.75;;;23.40;99.90;;;;;;5032366;28;20175;-74
2022/08/31 09:35:54;;;;;;;4.15;3.72;;;23.40;99.90;;;;;;5028969;28;20343;-73
2022/08/31 09:38:33;;;;;;;3.63;3.33;;;23.40;99.90;;;;;;5028309;28;20197;-73
2022/08/31 09:41:00;;;;;;;4.20;3.70;;;23.40;99.90;;;;;;5028952;28;20172;-73
2022/08/31 09:43:36;;;;;;;3.50;3.20;;;23.50;99.90;;;;;;5030052;28;20177;-73
2022/08/31 09:46:18;;;;;;;4.13;3.83;;;23.60;99.90;;;;;;5036681;28;20197;-71
2022/08/31 09:48:50;;;;;;;4.45;4.03;;;23.50;99.90;;;;;;5031600;28;20200;-73
2022/08/31 09:51:34;;;;;;;4.30;4.00;;;23.50;99.90;;;;;;5033321;28;20684;-73
2022/08/31 09:57:02;;;;;;;3.80;3.60;;;23.60;99.90;;;;;;5036201;28;20249;-73
2022/08/31 09:59:42;;;;;;;4.60;4.13;;;23.60;99.90;;;;;;5023325;28;20190;-73
2022/08/31 10:02:25;;;;;;;4.35;3.88;;;23.60;99.90;;;;;;5034471;28;20175;-73
2022/08/31 10:04:56;;;;;;;3.97;3.58;;;23.70;99.90;;;;;;5032482;28;20276;-73
2022/08/31 10:07:36;;;;;;;4.30;3.90;;;23.50;99.90;;;;;;5037608;28;20192;-73
2022/08/31 10:10:21;;;;;;;3.92;3.63;;;23.30;99.90;;;;;;5025700;28;20223;-73
2022/08/31 10:12:59;;;;;;;4.43;3.80;;;23.40;99.90;;;;;;5024136;28;20281;-74
2022/08/31 10:15:25;;;;;;;4.68;4.38;;;23.30;99.90;;;;;;5030271;28;20219;-72
2022/08/31 10:18:14;;;;;;;4.25;3.83;;;23.30;99.90;;;;;;5031538;28;20230;-74
2022/08/31 10:20:47;;;;;;;4.10;3.67;;;23.10;99.90;;;;;;5031091;28;20396;-73
2022/08/31 10:23:32;;;;;;;4.10;3.80;;;23.20;99.90;;;;;;5028034;28;20208;-73
2022/08/31 10:26:06;;;;;;;3.95;3.65;;;23.20;99.90;;;;;;5036519;28;20568;-75
2022/08/31 10:28:39;;;;;;;4.07;3.78;;;23.40;99.90;;;;;;5036408;28;20195;-73
2022/08/31 10:31:22;;;;;;;4.40;4.00;;;23.60;99.90;;;;;;5034366;28;20257;-73
2022/08/31 10:37:09;;;;;;;5.00;4.05;;;24.10;99.90;;;;;;5036782;28;20272;-75
2022/08/31 10:39:43;;;;;;;3.72;3.53;;;24.20;99.90;;;;;;5029965;28;20204;-74
2022/08/31 10:42:17;;;;;;;4.55;3.83;;;24.30;99.90;;;;;;5037837;28;20639;-71
2022/08/31 10:44:55;;;;;;;5.22;4.50;;;24.50;99.90;;;;;;5035751;28;20184;-71
2022/08/31 10:47:24;;;;;;;4.38;3.97;;;24.60;99.90;;;;;;5033616;28;20188;-72
2022/08/31 10:49:55;;;;;;;6.80;3.88;;;24.70;99.90;;;;;;5029470;28;20239;-74
2022/08/31 10:52:31;;;;;;;4.45;4.10;;;25.00;99.90;;;;;;5035343;28;20189;-73
2022/08/31 10:55:06;;;;;;;3.67;3.38;;;25.20;99.90;;;;;;5033748;28;20246;-74
2022/08/31 10:57:46;;;;;;;3.92;3.72;;;25.30;99.90;;;;;;5033093;28;20203;-75
2022/08/31 11:03:39;;;;;;;3.80;3.47;;;25.00;99.30;;;;;;5038845;28;20223;-72
2022/08/31 11:06:11;;;;;;;4.22;3.80;;;24.80;99.90;;;;;;5031493;28;20543;-72
2022/08/31 11:08:48;;;;;;;3.72;3.42;;;24.80;99.90;;;;;;5030166;28;20196;-71
2022/08/31 11:11:41;;;;;;;4.10;3.55;;;25.00;99.70;;;;;;5035521;28;20187;-71
2022/08/31 11:14:22;;;;;;;7.68;3.85;;;24.70;99.90;;;;;;5033176;28;20197;-72
2022/08/31 11:17:07;;;;;;;3.90;3.60;;;24.70;99.90;;;;;;5028524;28;20617;-76
2022/08/31 11:19:38;;;;;;;4.10;3.65;;;24.80;99.80;;;;;;5038209;28;20617;-76
2022/08/31 11:22:37;;;;;;;4.80;3.20;;;24.90;99.90;;;;;;5031454;28;20184;-75
2022/08/31 11:25:35;;;;;;;4.13;3.80;;;25.10;99.90;;;;;;5032192;28;20350;-73
2022/08/31 11:28:21;;;;;;;6.82;4.10;;;25.20;99.90;;;;;;5035997;28;20225;-75
2022/08/31 11:30:47;;;;;;;4.55;4.00;;;25.40;98.70;;;;;;5027058;28;21485;-74
2022/08/31 11:33:20;;;;;;;5.10;3.42;;;25.70;98.70;;;;;;5026436;28;20231;-72
2022/08/31 11:35:54;;;;;;;6.43;4.20;;;26.00;98.10;;;;;;5038291;28;20208;-73
2022/08/31 11:38:39;;;;;;;5.22;3.80;;;26.10;98.10;;;;;;5031121;28;20200;-73
2022/08/31 11:41:04;;;;;;;6.38;4.05;;;26.20;97.60;;;;;;5029795;28;20674;-73
2022/08/31 11:43:30;;;;;;;4.22;3.83;;;26.00;98.00;;;;;;5027106;28;20192;-72
2022/08/31 11:46:00;;;;;;;3.80;3.50;;;25.90;98.00;;;;;;5028711;28;20184;-73
2022/08/31 11:48:52;;;;;;;3.80;3.50;;;25.70;97.50;;;;;;5036289;28;20200;-72
2022/08/31 11:51:41;;;;;;;4.13;3.65;;;25.40;98.40;;;;;;5030362;28;20538;-72
2022/08/31 11:54:25;;;;;;;4.63;3.70;;;25.40;99.10;;;;;;5030690;28;20223;-72
2022/08/31 11:56:55;;;;;;;4.03;3.72;;;25.30;98.80;;;;;;5033685;28;20204;-72
2022/08/31 11:59:26;;;;;;;4.20;3.90;;;25.30;99.90;;;;;;5031499;28;20671;-72
2022/08/31 12:01:55;;;;;;;6.32;4.00;;;25.70;98.80;;;;;;5030239;28;20659;-72
2022/08/31 12:04:40;;;;;;;4.45;3.85;;;26.00;97.40;;;;;;5027731;28;20204;-72
2022/08/31 12:07:09;;;;;;;3.95;3.60;;;26.60;96.60;;;;;;5031303;28;20204;-73
2022/08/31 12:10:04;;;;;;;6.20;4.25;;;26.80;95.80;;;;;;5033082;28;20196;-72
2022/08/31 12:12:42;;;;;;;5.95;4.10;;;26.70;95.50;;;;;;5029604;28;20188;-72
2022/08/31 12:15:26;;;;;;;5.90;3.60;;;26.70;95.60;;;;;;5028571;28;20651;-75
2022/08/31 12:18:16;;;;;;;4.25;3.42;;;26.60;95.70;;;;;;5023248;28;20739;-72
2022/08/31 12:23:43;;;;;;;6.03;4.10;;;26.40;95.80;;;;;;5031596;28;20250;-72
2022/08/31 12:26:30;;;;;;;5.65;4.40;;;26.10;96.40;;;;;;5030986;28;21441;-72
2022/08/31 12:29:02;;;;;;;4.55;4.13;;;25.80;97.10;;;;;;5029964;28;20615;-72
2022/08/31 12:31:28;;;;;;;3.85;3.50;;;25.40;97.00;;;;;;5026189;28;20188;-73
2022/08/31 12:34:03;;;;;;;4.13;3.67;;;25.20;98.00;;;;;;5031378;28;20193;-72
2022/08/31 12:36:31;;;;;;;4.72;4.05;;;24.90;98.50;;;;;;5031236;28;20207;-75
2022/08/31 12:39:27;;;;;;;7.78;4.50;;;24.70;98.90;;;;;;5037151;28;20554;-75
2022/08/31 12:42:01;;;;;;;4.25;3.85;;;24.50;99.90;;;;;;5032890;28;20193;-75
2022/08/31 12:44:35;;;;;;;5.13;4.05;;;24.30;99.90;;;;;;5027589;28;20191;-74
2022/08/31 12:47:24;;;;;;;4.22;3.63;;;24.20;99.90;;;;;;5031197;28;20176;-74
2022/08/31 12:50:12;;;;;;;5.25;4.40;;;24.20;99.00;;;;;;5021009;28;20611;-74
2022/08/31 12:53:07;;;;;;;4.47;4.18;;;24.00;99.40;;;;;;5022980;28;20184;-73
2022/08/31 12:55:47;;;;;;;3.88;3.50;;;24.00;98.90;;;;;;5026849;28;20262;-74
2022/08/31 12:58:49;;;;;;;5.50;4.30;;;23.90;99.90;;;;;;5023206;28;20199;-75
2022/08/31 13:01:20;;;;;;;4.97;4.38;;;23.70;99.90;;;;;;5028801;28;20172;-75
2022/08/31 13:03:50;;;;;;;4.40;4.05;;;23.50;99.90;;;;;;5033612;28;20180;-74
2022/08/31 13:06:25;;;;;;;4.97;4.57;;;23.60;99.90;;;;;;5036385;28;20217;-76
2022/08/31 13:08:53;;;;;;;4.20;3.80;;;23.60;99.90;;;;;;5030736;28;20862;-76
2022/08/31 13:11:26;;;;;;;4.40;4.10;;;23.70;99.90;;;;;;5029551;28;20192;-76
2022/08/31 13:14:05;;;;;;;6.00;3.85;;;23.70;99.90;;;;;;5034607;28;20602;-78
2022/08/31 13:16:31;;;;;;;4.13;3.33;;;23.80;99.90;;;;;;5027800;28;20209;-74
2022/08/31 13:19:04;;;;;;;3.97;3.67;;;23.70;99.90;;;;;;5035604;28;20196;-74
2022/08/31 13:21:31;;;;;;;4.45;4.15;;;23.40;99.90;;;;;;5036911;28;20703;-76
2022/08/31 13:24:06;;;;;;;4.70;4.18;;;23.30;99.90;;;;;;5032487;28;20198;-76
2022/08/31 13:26:34;;;;;;;4.18;3.83;;;23.10;99.90;;;;;;5035061;28;20192;-79